sensor_id;sensor_type;location;lat;lon;timestamp;pressure;altitude;pressure_sealevel;temperature;humidity
72395;BME280;60384;48.152;11.614;2023-04-06T00:00:33;95893.53;;;3.79;52.83
72395;BME280;60384;48.152;11.614;2023-04-06T00:03:35;95889.56;;;3.77;52.73
72395;BME280;60384;48.152;11.614;2023-04-06T00:06:37;95883.47;;;3.76;53.18
72395;BME280;60384;48.152;11.614;2023-04-06T00:09:40;95881.13;;;3.74;52.86
72395;BME280;60384;48.152;11.614;2023-04-06T00:12:41;95890.09;;;3.73;53.29
72395;BME280;60384;48.152;11.614;2023-04-06T00:15:43;95885.88;;;3.72;53.23
72395;BME280;60384;48.152;11.614;2023-04-06T00:18:45;95878.22;;;3.71;53.00
72395;BME280;60384;48.152;11.614;2023-04-06T00:21:46;95871.63;;;3.68;53.42
72395;BME280;60384;48.152;11.614;2023-04-06T00:24:49;95880.84;;;3.66;53.41
72395;BME280;60384;48.152;11.614;2023-04-06T00:27:51;95872.44;;;3.64;53.12
72395;BME280;60384;48.152;11.614;2023-04-06T00:30:53;95874.53;;;3.62;53.07
72395;BME280;60384;48.152;11.614;2023-04-06T00:33:56;95871.09;;;3.61;52.92
72395;BME280;60384;48.152;11.614;2023-04-06T00:36:57;95876.38;;;3.61;52.81
72395;BME280;60384;48.152;11.614;2023-04-06T00:40:00;95875.84;;;3.59;53.41
72395;BME280;60384;48.152;11.614;2023-04-06T00:43:02;95874.53;;;3.57;52.84
72395;BME280;60384;48.152;11.614;2023-04-06T00:46:04;95872.44;;;3.54;53.22
72395;BME280;60384;48.152;11.614;2023-04-06T00:49:06;95879.56;;;3.53;53.47
72395;BME280;60384;48.152;11.614;2023-04-06T00:52:08;95881.94;;;3.50;53.29
72395;BME280;60384;48.152;11.614;2023-04-06T00:55:12;95874.56;;;3.47;53.08
72395;BME280;60384;48.152;11.614;2023-04-06T00:58:16;95874.03;;;3.45;53.31
72395;BME280;60384;48.152;11.614;2023-04-06T01:01:25;95874.56;;;3.42;53.06
72395;BME280;60384;48.152;11.614;2023-04-06T01:04:29;95881.16;;;3.39;53.26
72395;BME280;60384;48.152;11.614;2023-04-06T01:07:32;95876.94;;;3.38;52.91
72395;BME280;60384;48.152;11.614;2023-04-06T01:10:43;95878.78;;;3.38;52.87
72395;BME280;60384;48.152;11.614;2023-04-06T01:14:04;95871.13;;;3.36;53.45
72395;BME280;60384;48.152;11.614;2023-04-06T01:17:21;95871.13;;;3.31;52.79
72395;BME280;60384;48.152;11.614;2023-04-06T01:20:23;95865.84;;;3.31;53.16
72395;BME280;60384;48.152;11.614;2023-04-06T01:23:27;95864.00;;;3.26;52.89
72395;BME280;60384;48.152;11.614;2023-04-06T01:26:29;95867.44;;;3.22;53.20
72395;BME280;60384;48.152;11.614;2023-04-06T01:29:34;95863.47;;;3.19;52.92
72395;BME280;60384;48.152;11.614;2023-04-06T01:32:38;95870.09;;;3.17;53.28
72395;BME280;60384;48.152;11.614;2023-04-06T01:35:41;95862.69;;;3.14;53.16
72395;BME280;60384;48.152;11.614;2023-04-06T01:38:55;95859.53;;;3.12;53.26
72395;BME280;60384;48.152;11.614;2023-04-06T01:42:05;95856.09;;;3.11;53.49
72395;BME280;60384;48.152;11.614;2023-04-06T01:45:10;95861.38;;;3.11;52.80
72395;BME280;60384;48.152;11.614;2023-04-06T01:48:12;95855.31;;;3.11;53.46
72395;BME280;60384;48.152;11.614;2023-04-06T01:51:14;95851.09;;;3.10;53.42
72395;BME280;60384;48.152;11.614;2023-04-06T01:54:26;95860.84;;;3.09;52.82
72395;BME280;60384;48.152;11.614;2023-04-06T01:57:33;95853.19;;;3.08;53.37
72395;BME280;60384;48.152;11.614;2023-04-06T02:00:46;95858.22;;;3.04;52.88
72395;BME280;60384;48.152;11.614;2023-04-06T02:03:49;95853.47;;;3.01;52.97
72395;BME280;60384;48.152;11.614;2023-04-06T02:06:52;95856.38;;;3.00;53.42
72395;BME280;60384;48.152;11.614;2023-04-06T02:09:59;95851.09;;;3.00;52.89
72395;BME280;60384;48.152;11.614;2023-04-06T02:13:09;95845.03;;;2.99;53.23
72395;BME280;60384;48.152;11.614;2023-04-06T02:16:12;95847.41;;;2.96;53.40
72395;BME280;60384;48.152;11.614;2023-04-06T02:19:13;95855.84;;;2.92;53.27
72395;BME280;60384;48.152;11.614;2023-04-06T02:22:17;95844.75;;;2.90;53.24
72395;BME280;60384;48.152;11.614;2023-04-06T02:25:20;95853.75;;;2.89;53.10
72395;BME280;60384;48.152;11.614;2023-04-06T02:28:22;95854.00;;;2.88;52.90
72395;BME280;60384;48.152;11.614;2023-04-06T02:31:24;95850.81;;;2.86;53.28
72395;BME280;60384;48.152;11.614;2023-04-06T02:34:27;95855.28;;;2.85;53.38
72395;BME280;60384;48.152;11.614;2023-04-06T02:37:30;95845.03;;;2.84;53.27
72395;BME280;60384;48.152;11.614;2023-04-06T02:40:34;95848.44;;;2.79;53.44
72395;BME280;60384;48.152;11.614;2023-04-06T02:43:47;95846.06;;;2.78;53.24
72395;BME280;60384;48.152;11.614;2023-04-06T02:47:01;95854.00;;;2.78;53.49
72395;BME280;60384;48.152;11.614;2023-04-06T02:50:03;95845.28;;;2.77;52.96
72395;BME280;60384;48.152;11.614;2023-04-06T02:53:07;95846.06;;;2.78;53.18
72395;BME280;60384;48.152;11.614;2023-04-06T02:56:13;95842.09;;;2.75;52.97
72395;BME280;60384;48.152;11.614;2023-04-06T02:59:20;95844.22;;;2.73;53.36
72395;BME280;60384;48.152;11.614;2023-04-06T03:02:33;95846.06;;;2.73;52.81
72395;BME280;60384;48.152;11.614;2023-04-06T03:05:41;95845.28;;;2.72;53.01
72395;BME280;60384;48.152;11.614;2023-04-06T03:08:44;95845.53;;;2.71;53.18
72395;BME280;60384;48.152;11.614;2023-04-06T03:11:49;95849.22;;;2.70;53.28
72395;BME280;60384;48.152;11.614;2023-04-06T03:14:50;95843.94;;;2.70;53.19
72395;BME280;60384;48.152;11.614;2023-04-06T03:17:52;95852.91;;;2.69;53.32
72395;BME280;60384;48.152;11.614;2023-04-06T03:21:14;95849.75;;;2.67;53.34
72395;BME280;60384;48.152;11.614;2023-04-06T03:24:26;95845.78;;;2.64;53.20
72395;BME280;60384;48.152;11.614;2023-04-06T03:27:29;95841.03;;;2.61;53.54
72395;BME280;60384;48.152;11.614;2023-04-06T03:30:32;95850.25;;;2.59;53.16
72395;BME280;60384;48.152;11.614;2023-04-06T03:33:34;95850.00;;;2.55;53.24
72395;BME280;60384;48.152;11.614;2023-04-06T03:36:36;95841.28;;;2.49;53.29
72395;BME280;60384;48.152;11.614;2023-04-06T03:39:38;95847.59;;;2.43;53.25
72395;BME280;60384;48.152;11.614;2023-04-06T03:42:42;95847.59;;;2.38;53.27
72395;BME280;60384;48.152;11.614;2023-04-06T03:45:47;95857.06;;;2.34;53.25
72395;BME280;60384;48.152;11.614;2023-04-06T03:48:50;95851.25;;;2.32;53.20
72395;BME280;60384;48.152;11.614;2023-04-06T03:51:54;95849.13;;;2.29;53.33
72395;BME280;60384;48.152;11.614;2023-04-06T03:54:55;95852.31;;;2.26;53.53
72395;BME280;60384;48.152;11.614;2023-04-06T03:57:58;95865.72;;;2.25;53.45
72395;BME280;60384;48.152;11.614;2023-04-06T04:01:00;95864.94;;;2.24;53.55
72395;BME280;60384;48.152;11.614;2023-04-06T04:04:02;95867.81;;;2.23;53.42
72395;BME280;60384;48.152;11.614;2023-04-06T04:07:05;95870.19;;;2.24;53.23
72395;BME280;60384;48.152;11.614;2023-04-06T04:10:07;95872.84;;;2.24;53.42
72395;BME280;60384;48.152;11.614;2023-04-06T04:13:10;95874.69;;;2.24;53.44
72395;BME280;60384;48.152;11.614;2023-04-06T04:16:14;95881.28;;;2.21;53.46
72395;BME280;60384;48.152;11.614;2023-04-06T04:19:16;95877.84;;;2.21;53.27
72395;BME280;60384;48.152;11.614;2023-04-06T04:22:17;95878.63;;;2.21;53.38
72395;BME280;60384;48.152;11.614;2023-04-06T04:25:19;95884.16;;;2.20;53.47
72395;BME280;60384;48.152;11.614;2023-04-06T04:28:24;95883.38;;;2.19;53.24
72395;BME280;60384;48.152;11.614;2023-04-06T04:31:28;95882.56;;;2.19;53.35
72395;BME280;60384;48.152;11.614;2023-04-06T04:34:34;95887.84;;;2.19;53.70
72395;BME280;60384;48.152;11.614;2023-04-06T04:37:40;95886.53;;;2.16;53.34
72395;BME280;60384;48.152;11.614;2023-04-06T04:40:43;95886.22;;;2.13;53.51
72395;BME280;60384;48.152;11.614;2023-04-06T04:43:47;95883.31;;;2.09;53.45
72395;BME280;60384;48.152;11.614;2023-04-06T04:46:54;95880.94;;;2.07;53.42
72395;BME280;60384;48.152;11.614;2023-04-06T04:50:05;95887.25;;;2.06;53.40
72395;BME280;60384;48.152;11.614;2023-04-06T04:53:11;95886.19;;;2.02;53.58
72395;BME280;60384;48.152;11.614;2023-04-06T04:56:14;95890.13;;;2.00;53.39
72395;BME280;60384;48.152;11.614;2023-04-06T04:59:19;95889.59;;;1.98;53.48
72395;BME280;60384;48.152;11.614;2023-04-06T05:02:28;95883.00;;;1.95;53.47
72395;BME280;60384;48.152;11.614;2023-04-06T05:05:43;95883.78;;;1.96;53.54
72395;BME280;60384;48.152;11.614;2023-04-06T05:08:48;95889.06;;;1.96;53.40
72395;BME280;60384;48.152;11.614;2023-04-06T05:11:50;95885.34;;;1.92;53.71
72395;BME280;60384;48.152;11.614;2023-04-06T05:14:54;95883.50;;;1.87;53.27
72395;BME280;60384;48.152;11.614;2023-04-06T05:17:57;95884.78;;;1.85;53.27
72395;BME280;60384;48.152;11.614;2023-04-06T05:21:05;95886.88;;;1.83;53.33
72395;BME280;60384;48.152;11.614;2023-04-06T05:24:27;95889.00;;;1.86;53.29
72395;BME280;60384;48.152;11.614;2023-04-06T05:27:29;95885.06;;;1.88;53.17
72395;BME280;60384;48.152;11.614;2023-04-06T05:30:35;95893.78;;;1.94;53.34
72395;BME280;60384;48.152;11.614;2023-04-06T05:33:37;95883.00;;;2.00;53.12
72395;BME280;60384;48.152;11.614;2023-04-06T05:36:43;95899.13;;;2.04;52.95
72395;BME280;60384;48.152;11.614;2023-04-06T05:39:52;95891.72;;;2.06;52.93
72395;BME280;60384;48.152;11.614;2023-04-06T05:42:55;95894.38;;;2.11;52.95
72395;BME280;60384;48.152;11.614;2023-04-06T05:45:59;95895.47;;;2.15;52.91
72395;BME280;60384;48.152;11.614;2023-04-06T05:49:00;95894.16;;;2.23;52.74
72395;BME280;60384;48.152;11.614;2023-04-06T05:52:06;95894.47;;;2.31;52.81
72395;BME280;60384;48.152;11.614;2023-04-06T05:55:08;95900.03;;;2.40;52.68
72395;BME280;60384;48.152;11.614;2023-04-06T05:58:10;95903.47;;;2.45;52.47
72395;BME280;60384;48.152;11.614;2023-04-06T06:01:13;95895.31;;;2.52;52.50
72395;BME280;60384;48.152;11.614;2023-04-06T06:04:19;95904.03;;;2.58;52.43
72395;BME280;60384;48.152;11.614;2023-04-06T06:07:25;95897.47;;;2.65;52.64
72395;BME280;60384;48.152;11.614;2023-04-06T06:10:34;95895.09;;;2.74;52.53
72395;BME280;60384;48.152;11.614;2023-04-06T06:13:36;95903.31;;;2.82;52.96
72395;BME280;60384;48.152;11.614;2023-04-06T06:16:41;95897.78;;;2.89;52.59
72395;BME280;60384;48.152;11.614;2023-04-06T06:19:46;95898.34;;;2.96;52.66
72395;BME280;60384;48.152;11.614;2023-04-06T06:22:47;95894.34;;;3.04;52.66
72395;BME280;60384;48.152;11.614;2023-04-06T06:25:53;95890.94;;;3.13;52.41
72395;BME280;60384;48.152;11.614;2023-04-06T06:28:58;95882.25;;;3.23;51.96
72395;BME280;60384;48.152;11.614;2023-04-06T06:32:02;95885.13;;;3.31;51.87
72395;BME280;60384;48.152;11.614;2023-04-06T06:35:04;95894.38;;;3.39;52.06
72395;BME280;60384;48.152;11.614;2023-04-06T06:38:07;95893.06;;;3.47;51.97
72395;BME280;60384;48.152;11.614;2023-04-06T06:41:09;95894.34;;;3.54;52.17
72395;BME280;60384;48.152;11.614;2023-04-06T06:44:11;95896.72;;;3.61;52.05
72395;BME280;60384;48.152;11.614;2023-04-06T06:47:15;95897.25;;;3.68;52.02
72395;BME280;60384;48.152;11.614;2023-04-06T06:50:18;95901.97;;;3.76;52.21
72395;BME280;60384;48.152;11.614;2023-04-06T06:53:20;95900.38;;;3.85;52.50
72395;BME280;60384;48.152;11.614;2023-04-06T06:56:21;95901.13;;;3.96;51.81
72395;BME280;60384;48.152;11.614;2023-04-06T06:59:25;95904.00;;;4.04;51.76
72395;BME280;60384;48.152;11.614;2023-04-06T07:02:28;95908.22;;;4.15;52.24
72395;BME280;60384;48.152;11.614;2023-04-06T07:05:30;95900.25;;;4.26;51.68
72395;BME280;60384;48.152;11.614;2023-04-06T07:08:32;95906.03;;;4.38;52.44
72395;BME280;60384;48.152;11.614;2023-04-06T07:11:34;95906.47;;;4.50;51.99
72395;BME280;60384;48.152;11.614;2023-04-06T07:14:36;95911.72;;;4.65;51.50
72395;BME280;60384;48.152;11.614;2023-04-06T07:17:39;95903.94;;;4.84;51.96
72395;BME280;60384;48.152;11.614;2023-04-06T07:20:41;95910.38;;;5.12;51.28
72395;BME280;60384;48.152;11.614;2023-04-06T07:23:43;95910.22;;;5.32;51.10
72395;BME280;60384;48.152;11.614;2023-04-06T07:26:46;95899.22;;;5.49;51.00
72395;BME280;60384;48.152;11.614;2023-04-06T07:29:48;95902.53;;;5.64;50.81
72395;BME280;60384;48.152;11.614;2023-04-06T07:32:51;95903.97;;;5.80;50.90
72395;BME280;60384;48.152;11.614;2023-04-06T07:35:56;95894.38;;;5.90;50.89
72395;BME280;60384;48.152;11.614;2023-04-06T07:38:59;95901.72;;;5.98;51.13
72395;BME280;60384;48.152;11.614;2023-04-06T07:42:01;95904.75;;;6.10;50.82
72395;BME280;60384;48.152;11.614;2023-04-06T07:45:03;95910.78;;;6.15;50.67
72395;BME280;60384;48.152;11.614;2023-04-06T07:48:06;95909.38;;;6.23;51.02
72395;BME280;60384;48.152;11.614;2023-04-06T07:51:08;95899.78;;;6.27;51.25
72395;BME280;60384;48.152;11.614;2023-04-06T07:54:15;95904.53;;;6.30;50.94
72395;BME280;60384;48.152;11.614;2023-04-06T07:57:17;95906.53;;;6.38;51.36
72395;BME280;60384;48.152;11.614;2023-04-06T08:00:19;95900.09;;;6.44;51.01
72395;BME280;60384;48.152;11.614;2023-04-06T08:03:22;95900.03;;;6.49;50.57
72395;BME280;60384;48.152;11.614;2023-04-06T08:06:25;95905.53;;;6.58;50.99
72395;BME280;60384;48.152;11.614;2023-04-06T08:09:27;95896.63;;;6.68;51.60
72395;BME280;60384;48.152;11.614;2023-04-06T08:12:29;95899.19;;;6.78;50.66
72395;BME280;60384;48.152;11.614;2023-04-06T08:15:31;95894.28;;;7.03;50.69
72395;BME280;60384;48.152;11.614;2023-04-06T08:18:34;95897.06;;;7.31;50.03
72395;BME280;60384;48.152;11.614;2023-04-06T08:21:36;95898.88;;;7.49;50.51
72395;BME280;60384;48.152;11.614;2023-04-06T08:24:37;95895.78;;;7.61;49.84
72395;BME280;60384;48.152;11.614;2023-04-06T08:27:39;95895.97;;;7.64;50.75
72395;BME280;60384;48.152;11.614;2023-04-06T08:30:41;95893.16;;;7.74;49.62
72395;BME280;60384;48.152;11.614;2023-04-06T08:33:44;95897.00;;;7.82;49.55
72395;BME280;60384;48.152;11.614;2023-04-06T08:36:46;95897.13;;;7.91;49.75
72395;BME280;60384;48.152;11.614;2023-04-06T08:39:47;95897.72;;;8.01;50.34
72395;BME280;60384;48.152;11.614;2023-04-06T08:42:50;95892.50;;;8.10;49.80
72395;BME280;60384;48.152;11.614;2023-04-06T08:45:52;95902.56;;;8.13;49.80
72395;BME280;60384;48.152;11.614;2023-04-06T08:48:55;95901.78;;;8.12;50.33
72395;BME280;60384;48.152;11.614;2023-04-06T08:51:57;95901.50;;;8.14;50.49
72395;BME280;60384;48.152;11.614;2023-04-06T08:54:59;95894.88;;;8.11;49.90
72395;BME280;60384;48.152;11.614;2023-04-06T08:58:01;95889.28;;;8.13;50.89
72395;BME280;60384;48.152;11.614;2023-04-06T09:01:05;95890.25;;;8.17;50.05
72395;BME280;60384;48.152;11.614;2023-04-06T09:04:09;95885.63;;;8.22;49.94
72395;BME280;60384;48.152;11.614;2023-04-06T09:07:11;95893.03;;;8.25;49.98
72395;BME280;60384;48.152;11.614;2023-04-06T09:10:13;95886.22;;;8.33;49.91
72395;BME280;60384;48.152;11.614;2023-04-06T09:13:15;95885.03;;;8.39;50.58
72395;BME280;60384;48.152;11.614;2023-04-06T09:16:17;95882.19;;;8.49;50.16
72395;BME280;60384;48.152;11.614;2023-04-06T09:19:21;95880.59;;;8.62;49.88
72395;BME280;60384;48.152;11.614;2023-04-06T09:22:23;95887.94;;;8.79;50.33
72395;BME280;60384;48.152;11.614;2023-04-06T09:25:27;95880.72;;;8.93;49.92
72395;BME280;60384;48.152;11.614;2023-04-06T09:28:29;95878.69;;;9.12;49.56
72395;BME280;60384;48.152;11.614;2023-04-06T09:31:31;95886.81;;;9.29;49.97
72395;BME280;60384;48.152;11.614;2023-04-06T09:34:34;95880.81;;;9.46;49.56
72395;BME280;60384;48.152;11.614;2023-04-06T09:37:36;95873.41;;;9.65;49.40
72395;BME280;60384;48.152;11.614;2023-04-06T09:40:46;95878.34;;;9.80;49.05
72395;BME280;60384;48.152;11.614;2023-04-06T09:43:49;95877.97;;;10.18;49.05
72395;BME280;60384;48.152;11.614;2023-04-06T09:46:50;95878.56;;;10.71;47.55
72395;BME280;60384;48.152;11.614;2023-04-06T09:49:56;95883.03;;;10.93;46.90
72395;BME280;60384;48.152;11.614;2023-04-06T09:52:58;95864.78;;;10.87;47.68
72395;BME280;60384;48.152;11.614;2023-04-06T09:56:02;95868.56;;;11.03;47.22
72395;BME280;60384;48.152;11.614;2023-04-06T09:59:07;95868.94;;;11.99;45.39
72395;BME280;60384;48.152;11.614;2023-04-06T10:02:12;95870.56;;;11.83;46.25
72395;BME280;60384;48.152;11.614;2023-04-06T10:05:19;95863.97;;;11.55;47.92
72395;BME280;60384;48.152;11.614;2023-04-06T10:08:22;95850.84;;;11.88;46.63
72395;BME280;60384;48.152;11.614;2023-04-06T10:11:25;95849.06;;;12.68;45.93
72395;BME280;60384;48.152;11.614;2023-04-06T10:14:27;95849.50;;;12.49;46.21
72395;BME280;60384;48.152;11.614;2023-04-06T10:17:29;95849.09;;;12.59;46.25
72395;BME280;60384;48.152;11.614;2023-04-06T10:20:33;95849.88;;;12.39;47.05
72395;BME280;60384;48.152;11.614;2023-04-06T10:23:39;95842.72;;;12.93;45.80
72395;BME280;60384;48.152;11.614;2023-04-06T10:26:42;95835.69;;;13.30;45.38
72395;BME280;60384;48.152;11.614;2023-04-06T10:29:44;95843.09;;;13.66;45.16
72395;BME280;60384;48.152;11.614;2023-04-06T10:32:46;95832.53;;;13.94;45.07
72395;BME280;60384;48.152;11.614;2023-04-06T10:35:49;95833.31;;;14.19;44.88
72395;BME280;60384;48.152;11.614;2023-04-06T10:38:55;95836.38;;;14.41;44.97
72395;BME280;60384;48.152;11.614;2023-04-06T10:41:57;95818.81;;;14.56;44.70
72395;BME280;60384;48.152;11.614;2023-04-06T10:45:18;95814.09;;;14.41;45.75
72395;BME280;60384;48.152;11.614;2023-04-06T10:48:20;95821.91;;;14.70;45.40
72395;BME280;60384;48.152;11.614;2023-04-06T10:51:25;95820.88;;;14.87;45.12
72395;BME280;60384;48.152;11.614;2023-04-06T10:54:28;95816.50;;;14.95;45.74
72395;BME280;60384;48.152;11.614;2023-04-06T10:57:32;95817.47;;;14.62;45.94
72395;BME280;60384;48.152;11.614;2023-04-06T11:00:34;95812.41;;;14.24;46.72
72395;BME280;60384;48.152;11.614;2023-04-06T11:03:42;95810.69;;;13.83;47.45
72395;BME280;60384;48.152;11.614;2023-04-06T11:06:47;95822.59;;;13.61;47.91
72395;BME280;60384;48.152;11.614;2023-04-06T11:09:50;95808.25;;;14.02;47.12
72395;BME280;60384;48.152;11.614;2023-04-06T11:12:52;95804.13;;;14.41;46.44
72395;BME280;60384;48.152;11.614;2023-04-06T11:15:54;95805.34;;;14.80;45.88
72395;BME280;60384;48.152;11.614;2023-04-06T11:18:57;95801.13;;;15.35;45.59
72395;BME280;60384;48.152;11.614;2023-04-06T11:22:06;95789.78;;;16.17;44.83
72395;BME280;60384;48.152;11.614;2023-04-06T11:25:07;95788.81;;;17.71;42.29
72395;BME280;60384;48.152;11.614;2023-04-06T11:28:09;95794.78;;;17.19;42.65
72395;BME280;60384;48.152;11.614;2023-04-06T11:31:11;95782.66;;;17.71;42.37
72395;BME280;60384;48.152;11.614;2023-04-06T11:34:13;95781.56;;;18.96;40.50
72395;BME280;60384;48.152;11.614;2023-04-06T11:37:18;95776.56;;;21.15;37.91
72395;BME280;60384;48.152;11.614;2023-04-06T11:40:20;95762.91;;;20.39;39.52
72395;BME280;60384;48.152;11.614;2023-04-06T11:43:25;95777.47;;;20.20;40.08
72395;BME280;60384;48.152;11.614;2023-04-06T11:46:27;95779.63;;;18.44;42.99
72395;BME280;60384;48.152;11.614;2023-04-06T11:49:29;95775.59;;;17.24;45.24
72395;BME280;60384;48.152;11.614;2023-04-06T11:52:33;95777.47;;;16.50;46.25
72395;BME280;60384;48.152;11.614;2023-04-06T11:55:37;95773.34;;;18.89;42.32
72395;BME280;60384;48.152;11.614;2023-04-06T11:58:39;95767.50;;;18.87;42.72
72395;BME280;60384;48.152;11.614;2023-04-06T12:01:44;95761.53;;;17.57;45.25
72395;BME280;60384;48.152;11.614;2023-04-06T12:04:46;95760.44;;;18.04;44.55
72395;BME280;60384;48.152;11.614;2023-04-06T12:07:49;95770.91;;;20.21;41.30
72395;BME280;60384;48.152;11.614;2023-04-06T12:10:50;95756.94;;;21.82;39.30
72395;BME280;60384;48.152;11.614;2023-04-06T12:13:53;95753.91;;;22.01;39.78
72395;BME280;60384;48.152;11.614;2023-04-06T12:16:54;95770.38;;;19.65;42.76
72395;BME280;60384;48.152;11.614;2023-04-06T12:19:56;95764.88;;;17.70;45.54
72395;BME280;60384;48.152;11.614;2023-04-06T12:22:59;95769.66;;;16.45;47.39
72395;BME280;60384;48.152;11.614;2023-04-06T12:26:01;95767.88;;;15.87;48.01
72395;BME280;60384;48.152;11.614;2023-04-06T12:29:03;95766.84;;;15.48;48.12
72395;BME280;60384;48.152;11.614;2023-04-06T12:32:07;95752.47;;;17.46;45.12
72395;BME280;60384;48.152;11.614;2023-04-06T12:35:08;95744.38;;;19.27;42.41
72395;BME280;60384;48.152;11.614;2023-04-06T12:38:13;95746.31;;;19.26;42.76
72395;BME280;60384;48.152;11.614;2023-04-06T12:41:15;95744.81;;;18.16;44.97
72395;BME280;60384;48.152;11.614;2023-04-06T12:44:17;95736.50;;;18.06;45.18
72395;BME280;60384;48.152;11.614;2023-04-06T12:47:18;95739.44;;;19.03;43.43
72395;BME280;60384;48.152;11.614;2023-04-06T12:50:20;95724.44;;;20.30;42.00
72395;BME280;60384;48.152;11.614;2023-04-06T12:53:23;95726.16;;;20.52;41.88
72395;BME280;60384;48.152;11.614;2023-04-06T12:56:25;95724.97;;;18.88;44.71
72395;BME280;60384;48.152;11.614;2023-04-06T12:59:27;95740.94;;;17.49;46.20
72395;BME280;60384;48.152;11.614;2023-04-06T13:02:34;95733.72;;;18.78;43.96
72395;BME280;60384;48.152;11.614;2023-04-06T13:05:36;95727.13;;;19.79;42.16
72395;BME280;60384;48.152;11.614;2023-04-06T13:08:46;95733.53;;;18.64;44.41
72395;BME280;60384;48.152;11.614;2023-04-06T13:11:50;95729.69;;;17.66;46.12
72395;BME280;60384;48.152;11.614;2023-04-06T13:14:52;95725.94;;;17.71;45.33
72395;BME280;60384;48.152;11.614;2023-04-06T13:17:53;95715.03;;;18.99;43.14
72395;BME280;60384;48.152;11.614;2023-04-06T13:20:55;95714.31;;;19.39;42.92
72395;BME280;60384;48.152;11.614;2023-04-06T13:23:58;95715.78;;;20.14;42.08
72395;BME280;60384;48.152;11.614;2023-04-06T13:27:00;95705.28;;;20.63;41.70
72395;BME280;60384;48.152;11.614;2023-04-06T13:30:03;95706.53;;;19.71;43.29
72395;BME280;60384;48.152;11.614;2023-04-06T13:33:05;95719.94;;;18.56;44.90
72395;BME280;60384;48.152;11.614;2023-04-06T13:36:07;95713.84;;;17.88;46.02
72395;BME280;60384;48.152;11.614;2023-04-06T13:39:10;95721.84;;;17.39;46.58
72395;BME280;60384;48.152;11.614;2023-04-06T13:42:12;95716.03;;;17.17;46.77
72395;BME280;60384;48.152;11.614;2023-04-06T13:45:13;95713.88;;;16.84;47.32
72395;BME280;60384;48.152;11.614;2023-04-06T13:48:15;95706.56;;;17.27;46.61
72395;BME280;60384;48.152;11.614;2023-04-06T13:51:17;95700.44;;;18.47;44.27
72395;BME280;60384;48.152;11.614;2023-04-06T13:54:45;95693.22;;;19.18;43.56
72395;BME280;60384;48.152;11.614;2023-04-06T13:57:47;95687.63;;;18.71;44.87
72395;BME280;60384;48.152;11.614;2023-04-06T14:00:48;95695.47;;;17.74;45.96
72395;BME280;60384;48.152;11.614;2023-04-06T14:03:51;95691.88;;;18.15;45.05
72395;BME280;60384;48.152;11.614;2023-04-06T14:06:52;95684.88;;;17.43;45.89
72395;BME280;60384;48.152;11.614;2023-04-06T14:09:55;95696.47;;;16.82;46.58
72395;BME280;60384;48.152;11.614;2023-04-06T14:12:57;95695.69;;;16.46;46.53
72395;BME280;60384;48.152;11.614;2023-04-06T14:15:58;95703.66;;;15.89;47.29
72395;BME280;60384;48.152;11.614;2023-04-06T14:19:00;95696.13;;;16.48;46.46
72395;BME280;60384;48.152;11.614;2023-04-06T14:22:01;95691.97;;;16.70;45.96
72395;BME280;60384;48.152;11.614;2023-04-06T14:25:06;95691.34;;;16.42;46.56
72395;BME280;60384;48.152;11.614;2023-04-06T14:28:07;95680.34;;;16.85;46.07
72395;BME280;60384;48.152;11.614;2023-04-06T14:31:09;95671.91;;;17.52;45.17
72395;BME280;60384;48.152;11.614;2023-04-06T14:34:11;95675.16;;;17.84;44.62
72395;BME280;60384;48.152;11.614;2023-04-06T14:37:13;95676.22;;;18.02;44.76
72395;BME280;60384;48.152;11.614;2023-04-06T14:40:16;95678.44;;;17.96;44.60
72395;BME280;60384;48.152;11.614;2023-04-06T14:43:18;95665.41;;;17.33;45.82
72395;BME280;60384;48.152;11.614;2023-04-06T14:46:19;95672.22;;;17.47;45.65
72395;BME280;60384;48.152;11.614;2023-04-06T14:49:21;95673.03;;;17.51;45.20
72395;BME280;60384;48.152;11.614;2023-04-06T14:52:23;95669.16;;;17.25;45.51
72395;BME280;60384;48.152;11.614;2023-04-06T14:55:26;95671.31;;;16.97;46.37
72395;BME280;60384;48.152;11.614;2023-04-06T14:58:28;95664.88;;;17.24;45.73
72395;BME280;60384;48.152;11.614;2023-04-06T15:01:33;95666.38;;;17.45;45.26
72395;BME280;60384;48.152;11.614;2023-04-06T15:04:35;95667.78;;;17.58;45.46
72395;BME280;60384;48.152;11.614;2023-04-06T15:07:36;95678.06;;;17.07;46.34
72395;BME280;60384;48.152;11.614;2023-04-06T15:10:39;95659.53;;;16.67;46.72
72395;BME280;60384;48.152;11.614;2023-04-06T15:13:41;95675.47;;;16.37;46.99
72395;BME280;60384;48.152;11.614;2023-04-06T15:16:43;95678.75;;;16.11;47.03
72395;BME280;60384;48.152;11.614;2023-04-06T15:19:44;95667.09;;;16.07;47.25
72395;BME280;60384;48.152;11.614;2023-04-06T15:22:46;95669.69;;;16.19;46.80
72395;BME280;60384;48.152;11.614;2023-04-06T15:25:49;95668.91;;;16.19;46.62
72395;BME280;60384;48.152;11.614;2023-04-06T15:28:51;95670.69;;;16.11;46.91
72395;BME280;60384;48.152;11.614;2023-04-06T15:31:52;95671.41;;;15.92;47.25
72395;BME280;60384;48.152;11.614;2023-04-06T15:37:57;95658.47;;;15.66;47.37
72395;BME280;60384;48.152;11.614;2023-04-06T15:41:00;95659.00;;;15.56;47.63
72395;BME280;60384;48.152;11.614;2023-04-06T15:44:03;95670.25;;;15.46;47.53
72395;BME280;60384;48.152;11.614;2023-04-06T15:47:04;95666.84;;;15.34;47.27
72395;BME280;60384;48.152;11.614;2023-04-06T15:50:06;95667.38;;;15.23;47.29
72395;BME280;60384;48.152;11.614;2023-04-06T15:53:08;95667.09;;;15.13;47.37
72395;BME280;60384;48.152;11.614;2023-04-06T15:56:11;95670.66;;;15.01;47.52
72395;BME280;60384;48.152;11.614;2023-04-06T15:59:13;95668.09;;;14.93;47.64
72395;BME280;60384;48.152;11.614;2023-04-06T16:02:15;95661.66;;;14.81;47.87
72395;BME280;60384;48.152;11.614;2023-04-06T16:05:17;95662.06;;;14.68;48.07
72395;BME280;60384;48.152;11.614;2023-04-06T16:08:18;95668.25;;;14.56;47.79